sensor_id;sensor_type;location;lat;lon;timestamp;temperature;humidity
35129;DHT22;21301;43.626;10.580;2022-07-01T00:02:13;20.40;99.90
35129;DHT22;21301;43.626;10.580;2022-07-01T00:04:39;20.40;99.90
35129;DHT22;21301;43.626;10.580;2022-07-01T00:07:23;20.50;99.90
35129;DHT22;21301;43.626;10.580;2022-07-01T00:09:49;20.70;99.90
35129;DHT22;21301;43.626;10.580;2022-07-01T00:12:14;20.80;99.90
35129;DHT22;21301;43.626;10.580;2022-07-01T00:14:40;20.70;99.90
35129;DHT22;21301;43.626;10.580;2022-07-01T00:17:07;20.70;99.90
35129;DHT22;21301;43.626;10.580;2022-07-01T00:19:33;20.80;99.90
35129;DHT22;21301;43.626;10.580;2022-07-01T00:21:59;20.70;99.90
35129;DHT22;21301;43.626;10.580;2022-07-01T00:24:26;20.70;99.90
35129;DHT22;21301;43.626;10.580;2022-07-01T00:26:52;20.60;99.90
35129;DHT22;21301;43.626;10.580;2022-07-01T00:29:18;20.50;99.90
35129;DHT22;21301;43.626;10.580;2022-07-01T00:31:44;20.40;99.90
35129;DHT22;21301;43.626;10.580;2022-07-01T00:34:10;20.60;99.90
35129;DHT22;21301;43.626;10.580;2022-07-01T00:36:35;20.70;99.90
35129;DHT22;21301;43.626;10.580;2022-07-01T00:39:01;20.60;99.90
35129;DHT22;21301;43.626;10.580;2022-07-01T00:41:27;20.60;99.90
35129;DHT22;21301;43.626;10.580;2022-07-01T00:43:53;20.60;99.90
35129;DHT22;21301;43.626;10.580;2022-07-01T00:46:19;20.40;99.90
35129;DHT22;21301;43.626;10.580;2022-07-01T00:48:45;20.50;99.90
35129;DHT22;21301;43.626;10.580;2022-07-01T00:51:11;20.80;99.90
35129;DHT22;21301;43.626;10.580;2022-07-01T00:53:37;20.80;99.90
35129;DHT22;21301;43.626;10.580;2022-07-01T00:56:03;20.70;99.90
35129;DHT22;21301;43.626;10.580;2022-07-01T00:58:29;20.70;99.90
35129;DHT22;21301;43.626;10.580;2022-07-01T01:00:57;20.50;99.90
35129;DHT22;21301;43.626;10.580;2022-07-01T01:03:24;20.40;99.90
35129;DHT22;21301;43.626;10.580;2022-07-01T01:05:50;20.20;99.90
35129;DHT22;21301;43.626;10.580;2022-07-01T01:08:16;20.10;99.90
35129;DHT22;21301;43.626;10.580;2022-07-01T01:10:43;20.20;99.90
35129;DHT22;21301;43.626;10.580;2022-07-01T01:13:09;20.10;99.90
35129;DHT22;21301;43.626;10.580;2022-07-01T01:15:35;20.00;99.90
35129;DHT22;21301;43.626;10.580;2022-07-01T01:18:03;19.90;99.90
35129;DHT22;21301;43.626;10.580;2022-07-01T01:20:34;19.90;99.90
35129;DHT22;21301;43.626;10.580;2022-07-01T01:23:00;20.20;99.90
35129;DHT22;21301;43.626;10.580;2022-07-01T01:25:26;20.10;99.90
35129;DHT22;21301;43.626;10.580;2022-07-01T01:27:51;20.40;99.90
35129;DHT22;21301;43.626;10.580;2022-07-01T01:30:17;20.70;99.90
35129;DHT22;21301;43.626;10.580;2022-07-01T01:32:43;21.00;99.90
35129;DHT22;21301;43.626;10.580;2022-07-01T01:35:10;21.00;99.90
35129;DHT22;21301;43.626;10.580;2022-07-01T01:37:36;20.90;99.90
35129;DHT22;21301;43.626;10.580;2022-07-01T01:40:03;20.80;99.90
35129;DHT22;21301;43.626;10.580;2022-07-01T01:42:28;21.00;99.90
35129;DHT22;21301;43.626;10.580;2022-07-01T01:44:54;20.80;99.90
35129;DHT22;21301;43.626;10.580;2022-07-01T01:47:20;20.70;99.90
35129;DHT22;21301;43.626;10.580;2022-07-01T01:49:46;20.20;99.90
35129;DHT22;21301;43.626;10.580;2022-07-01T01:52:12;19.90;99.90
35129;DHT22;21301;43.626;10.580;2022-07-01T01:54:37;19.70;99.90
35129;DHT22;21301;43.626;10.580;2022-07-01T01:57:04;19.50;99.90
35129;DHT22;21301;43.626;10.580;2022-07-01T01:59:30;19.50;99.90
35129;DHT22;21301;43.626;10.580;2022-07-01T02:01:56;19.60;99.90
35129;DHT22;21301;43.626;10.580;2022-07-01T02:04:22;19.60;99.90
35129;DHT22;21301;43.626;10.580;2022-07-01T02:06:51;19.50;99.90
35129;DHT22;21301;43.626;10.580;2022-07-01T02:09:17;19.60;99.90
35129;DHT22;21301;43.626;10.580;2022-07-01T02:11:43;19.60;99.90
35129;DHT22;21301;43.626;10.580;2022-07-01T02:14:09;19.50;99.90
35129;DHT22;21301;43.626;10.580;2022-07-01T02:16:35;19.40;99.90
35129;DHT22;21301;43.626;10.580;2022-07-01T02:19:01;19.40;99.90
35129;DHT22;21301;43.626;10.580;2022-07-01T02:21:26;19.50;99.90
35129;DHT22;21301;43.626;10.580;2022-07-01T02:23:54;19.60;99.90
35129;DHT22;21301;43.626;10.580;2022-07-01T02:26:19;19.80;99.90
35129;DHT22;21301;43.626;10.580;2022-07-01T02:28:45;19.20;99.90
35129;DHT22;21301;43.626;10.580;2022-07-01T02:31:11;19.10;99.90
35129;DHT22;21301;43.626;10.580;2022-07-01T02:33:37;19.60;99.90
35129;DHT22;21301;43.626;10.580;2022-07-01T02:36:03;20.00;99.90
35129;DHT22;21301;43.626;10.580;2022-07-01T02:38:29;20.00;99.90
35129;DHT22;21301;43.626;10.580;2022-07-01T02:40:55;19.80;99.90
35129;DHT22;21301;43.626;10.580;2022-07-01T02:43:21;19.90;99.90
35129;DHT22;21301;43.626;10.580;2022-07-01T02:45:46;19.70;99.90
35129;DHT22;21301;43.626;10.580;2022-07-01T02:48:12;19.70;99.90
35129;DHT22;21301;43.626;10.580;2022-07-01T02:50:38;19.70;99.90
35129;DHT22;21301;43.626;10.580;2022-07-01T02:53:03;19.70;99.90
35129;DHT22;21301;43.626;10.580;2022-07-01T02:55:29;19.80;99.90
35129;DHT22;21301;43.626;10.580;2022-07-01T02:57:55;20.00;99.90
35129;DHT22;21301;43.626;10.580;2022-07-01T03:00:22;19.70;99.90
35129;DHT22;21301;43.626;10.580;2022-07-01T03:02:48;19.30;99.90
35129;DHT22;21301;43.626;10.580;2022-07-01T03:05:14;19.00;99.90
35129;DHT22;21301;43.626;10.580;2022-07-01T03:07:41;18.90;99.90
35129;DHT22;21301;43.626;10.580;2022-07-01T03:10:08;18.90;99.90
35129;DHT22;21301;43.626;10.580;2022-07-01T03:12:34;18.80;99.90
35129;DHT22;21301;43.626;10.580;2022-07-01T03:15:08;18.80;99.90
35129;DHT22;21301;43.626;10.580;2022-07-01T03:17:36;18.80;99.90
35129;DHT22;21301;43.626;10.580;2022-07-01T03:20:03;18.90;99.90
35129;DHT22;21301;43.626;10.580;2022-07-01T03:22:31;19.10;99.90
35129;DHT22;21301;43.626;10.580;2022-07-01T03:24:58;19.00;99.90
35129;DHT22;21301;43.626;10.580;2022-07-01T03:27:24;19.00;99.90
35129;DHT22;21301;43.626;10.580;2022-07-01T03:29:51;19.20;99.90
35129;DHT22;21301;43.626;10.580;2022-07-01T03:32:17;19.10;99.90
35129;DHT22;21301;43.626;10.580;2022-07-01T03:34:45;18.90;99.90
35129;DHT22;21301;43.626;10.580;2022-07-01T03:37:13;18.80;99.90
35129;DHT22;21301;43.626;10.580;2022-07-01T03:39:39;18.70;99.90
35129;DHT22;21301;43.626;10.580;2022-07-01T03:42:07;18.60;99.90
35129;DHT22;21301;43.626;10.580;2022-07-01T03:44:33;18.60;99.90
35129;DHT22;21301;43.626;10.580;2022-07-01T03:47:00;18.60;99.90
35129;DHT22;21301;43.626;10.580;2022-07-01T03:49:26;18.60;99.90
35129;DHT22;21301;43.626;10.580;2022-07-01T03:51:52;18.50;99.90
35129;DHT22;21301;43.626;10.580;2022-07-01T03:54:18;18.50;99.90
35129;DHT22;21301;43.626;10.580;2022-07-01T03:57:07;18.40;99.90
35129;DHT22;21301;43.626;10.580;2022-07-01T03:59:38;18.40;99.90
35129;DHT22;21301;43.626;10.580;2022-07-01T04:02:05;18.50;99.90
35129;DHT22;21301;43.626;10.580;2022-07-01T04:04:31;18.50;99.90
35129;DHT22;21301;43.626;10.580;2022-07-01T04:06:58;18.50;99.90
35129;DHT22;21301;43.626;10.580;2022-07-01T04:09:25;18.50;99.90
35129;DHT22;21301;43.626;10.580;2022-07-01T04:11:52;18.60;99.90
35129;DHT22;21301;43.626;10.580;2022-07-01T04:14:18;18.60;99.90
35129;DHT22;21301;43.626;10.580;2022-07-01T04:16:44;18.60;99.90
35129;DHT22;21301;43.626;10.580;2022-07-01T04:19:11;18.50;99.90
35129;DHT22;21301;43.626;10.580;2022-07-01T04:21:38;18.50;99.90
35129;DHT22;21301;43.626;10.580;2022-07-01T04:24:22;18.50;99.90
35129;DHT22;21301;43.626;10.580;2022-07-01T04:26:51;18.60;99.90
35129;DHT22;21301;43.626;10.580;2022-07-01T04:29:17;18.70;99.90
35129;DHT22;21301;43.626;10.580;2022-07-01T04:31:43;18.80;99.90
35129;DHT22;21301;43.626;10.580;2022-07-01T04:34:09;18.80;99.90
35129;DHT22;21301;43.626;10.580;2022-07-01T04:36:36;18.90;99.90
35129;DHT22;21301;43.626;10.580;2022-07-01T04:39:04;19.00;99.90
35129;DHT22;21301;43.626;10.580;2022-07-01T04:41:30;19.00;99.90
35129;DHT22;21301;43.626;10.580;2022-07-01T04:44:14;19.00;99.90
35129;DHT22;21301;43.626;10.580;2022-07-01T04:46:40;19.20;99.90
35129;DHT22;21301;43.626;10.580;2022-07-01T04:49:06;19.30;99.90
35129;DHT22;21301;43.626;10.580;2022-07-01T04:51:32;19.30;99.90
35129;DHT22;21301;43.626;10.580;2022-07-01T04:54:01;19.50;99.90
35129;DHT22;21301;43.626;10.580;2022-07-01T04:56:27;19.50;99.90
35129;DHT22;21301;43.626;10.580;2022-07-01T04:58:55;19.60;99.90
35129;DHT22;21301;43.626;10.580;2022-07-01T05:01:21;19.60;99.90
35129;DHT22;21301;43.626;10.580;2022-07-01T05:03:46;19.80;99.90
35129;DHT22;21301;43.626;10.580;2022-07-01T05:06:12;19.80;99.90
35129;DHT22;21301;43.626;10.580;2022-07-01T05:08:38;19.80;99.90
35129;DHT22;21301;43.626;10.580;2022-07-01T05:11:04;19.80;99.90
35129;DHT22;21301;43.626;10.580;2022-07-01T05:13:29;19.80;99.90
35129;DHT22;21301;43.626;10.580;2022-07-01T05:15:55;19.80;99.90
35129;DHT22;21301;43.626;10.580;2022-07-01T05:18:21;19.90;99.90
35129;DHT22;21301;43.626;10.580;2022-07-01T05:21:05;20.00;99.90
35129;DHT22;21301;43.626;10.580;2022-07-01T05:23:49;20.10;99.90
35129;DHT22;21301;43.626;10.580;2022-07-01T05:26:15;20.10;99.90
35129;DHT22;21301;43.626;10.580;2022-07-01T05:28:46;20.30;99.90
35129;DHT22;21301;43.626;10.580;2022-07-01T05:31:12;20.40;99.90
35129;DHT22;21301;43.626;10.580;2022-07-01T05:33:38;20.50;99.90
35129;DHT22;21301;43.626;10.580;2022-07-01T05:36:04;20.60;99.90
35129;DHT22;21301;43.626;10.580;2022-07-01T05:38:30;20.70;99.90
35129;DHT22;21301;43.626;10.580;2022-07-01T05:40:56;20.70;99.90
35129;DHT22;21301;43.626;10.580;2022-07-01T05:43:22;20.70;99.90
35129;DHT22;21301;43.626;10.580;2022-07-01T05:45:48;20.90;99.90
35129;DHT22;21301;43.626;10.580;2022-07-01T05:48:13;21.10;99.90
35129;DHT22;21301;43.626;10.580;2022-07-01T05:50:40;21.20;99.90
35129;DHT22;21301;43.626;10.580;2022-07-01T05:53:06;21.30;99.90
35129;DHT22;21301;43.626;10.580;2022-07-01T05:55:32;21.30;99.90
35129;DHT22;21301;43.626;10.580;2022-07-01T05:57:58;21.40;99.90
35129;DHT22;21301;43.626;10.580;2022-07-01T06:00:27;21.70;99.90
35129;DHT22;21301;43.626;10.580;2022-07-01T06:02:53;21.80;99.90
35129;DHT22;21301;43.626;10.580;2022-07-01T06:05:19;21.80;99.90
35129;DHT22;21301;43.626;10.580;2022-07-01T06:07:45;22.20;99.90
35129;DHT22;21301;43.626;10.580;2022-07-01T06:10:11;22.50;99.90
35129;DHT22;21301;43.626;10.580;2022-07-01T06:12:38;22.50;99.90
35129;DHT22;21301;43.626;10.580;2022-07-01T06:15:06;22.40;99.90
35129;DHT22;21301;43.626;10.580;2022-07-01T06:17:37;22.30;99.90
35129;DHT22;21301;43.626;10.580;2022-07-01T06:20:04;22.40;99.90
35129;DHT22;21301;43.626;10.580;2022-07-01T06:22:30;22.70;99.90
35129;DHT22;21301;43.626;10.580;2022-07-01T06:24:56;22.70;99.90
35129;DHT22;21301;43.626;10.580;2022-07-01T06:27:22;22.90;99.90
35129;DHT22;21301;43.626;10.580;2022-07-01T06:29:49;23.10;99.90
35129;DHT22;21301;43.626;10.580;2022-07-01T06:32:15;23.10;99.90
35129;DHT22;21301;43.626;10.580;2022-07-01T06:34:41;23.00;99.90
35129;DHT22;21301;43.626;10.580;2022-07-01T06:37:07;23.10;99.90
35129;DHT22;21301;43.626;10.580;2022-07-01T06:39:33;23.20;99.90
35129;DHT22;21301;43.626;10.580;2022-07-01T06:41:59;23.50;99.90
35129;DHT22;21301;43.626;10.580;2022-07-01T06:44:25;23.80;99.90
35129;DHT22;21301;43.626;10.580;2022-07-01T06:46:50;23.90;99.90
35129;DHT22;21301;43.626;10.580;2022-07-01T06:49:17;24.00;99.90
35129;DHT22;21301;43.626;10.580;2022-07-01T06:51:43;24.40;99.90
35129;DHT22;21301;43.626;10.580;2022-07-01T06:54:09;24.50;99.90
35129;DHT22;21301;43.626;10.580;2022-07-01T06:56:35;24.40;99.90
35129;DHT22;21301;43.626;10.580;2022-07-01T06:59:01;24.80;99.90
35129;DHT22;21301;43.626;10.580;2022-07-01T07:01:27;25.00;99.90
35129;DHT22;21301;43.626;10.580;2022-07-01T07:03:54;25.00;99.90
35129;DHT22;21301;43.626;10.580;2022-07-01T07:06:20;25.10;99.90
35129;DHT22;21301;43.626;10.580;2022-07-01T07:08:46;25.40;99.90
35129;DHT22;21301;43.626;10.580;2022-07-01T07:11:12;25.40;99.90
35129;DHT22;21301;43.626;10.580;2022-07-01T07:13:41;25.30;99.90
35129;DHT22;21301;43.626;10.580;2022-07-01T07:16:07;25.50;99.90
35129;DHT22;21301;43.626;10.580;2022-07-01T07:18:34;25.90;99.90
35129;DHT22;21301;43.626;10.580;2022-07-01T07:21:00;25.90;99.90
35129;DHT22;21301;43.626;10.580;2022-07-01T07:23:27;26.10;99.60
35129;DHT22;21301;43.626;10.580;2022-07-01T07:25:53;26.80;99.40
35129;DHT22;21301;43.626;10.580;2022-07-01T07:28:19;27.00;98.60
35129;DHT22;21301;43.626;10.580;2022-07-01T07:30:45;27.10;98.10
35129;DHT22;21301;43.626;10.580;2022-07-01T07:33:10;27.00;97.90
35129;DHT22;21301;43.626;10.580;2022-07-01T07:35:37;27.20;97.70
35129;DHT22;21301;43.626;10.580;2022-07-01T07:38:03;27.30;97.70
35129;DHT22;21301;43.626;10.580;2022-07-01T07:40:28;27.20;97.30
35129;DHT22;21301;43.626;10.580;2022-07-01T07:42:54;27.30;97.30
35129;DHT22;21301;43.626;10.580;2022-07-01T07:45:20;27.20;97.30
35129;DHT22;21301;43.626;10.580;2022-07-01T07:47:47;27.20;97.10
35129;DHT22;21301;43.626;10.580;2022-07-01T07:50:14;27.20;97.20
35129;DHT22;21301;43.626;10.580;2022-07-01T07:52:41;27.40;97.30
35129;DHT22;21301;43.626;10.580;2022-07-01T07:55:08;27.40;97.10
35129;DHT22;21301;43.626;10.580;2022-07-01T07:57:39;27.60;96.90
35129;DHT22;21301;43.626;10.580;2022-07-01T08:00:06;27.70;96.70
35129;DHT22;21301;43.626;10.580;2022-07-01T08:02:37;27.80;96.90
35129;DHT22;21301;43.626;10.580;2022-07-01T08:05:03;27.80;97.00
35129;DHT22;21301;43.626;10.580;2022-07-01T08:07:29;27.90;96.80
35129;DHT22;21301;43.626;10.580;2022-07-01T08:09:55;28.10;96.70
35129;DHT22;21301;43.626;10.580;2022-07-01T08:12:21;27.90;96.50
35129;DHT22;21301;43.626;10.580;2022-07-01T08:14:48;28.10;96.70
35129;DHT22;21301;43.626;10.580;2022-07-01T08:17:13;28.20;96.60
35129;DHT22;21301;43.626;10.580;2022-07-01T08:19:39;28.10;96.40
35129;DHT22;21301;43.626;10.580;2022-07-01T08:22:05;28.10;96.60
35129;DHT22;21301;43.626;10.580;2022-07-01T08:24:31;28.30;96.50
35129;DHT22;21301;43.626;10.580;2022-07-01T08:26:57;28.40;96.50
35129;DHT22;21301;43.626;10.580;2022-07-01T08:29:23;28.40;96.30
35129;DHT22;21301;43.626;10.580;2022-07-01T08:31:49;28.70;96.20
35129;DHT22;21301;43.626;10.580;2022-07-01T08:34:14;28.90;96.10
35129;DHT22;21301;43.626;10.580;2022-07-01T08:36:41;29.00;95.90
35129;DHT22;21301;43.626;10.580;2022-07-01T08:39:06;29.10;95.70
35129;DHT22;21301;43.626;10.580;2022-07-01T08:41:32;29.30;95.70
35129;DHT22;21301;43.626;10.580;2022-07-01T08:43:58;29.50;95.60
35129;DHT22;21301;43.626;10.580;2022-07-01T08:46:26;29.60;95.40
35129;DHT22;21301;43.626;10.580;2022-07-01T08:48:53;29.70;95.50
35129;DHT22;21301;43.626;10.580;2022-07-01T08:51:19;30.10;95.50
35129;DHT22;21301;43.626;10.580;2022-07-01T08:53:45;29.90;95.20
35129;DHT22;21301;43.626;10.580;2022-07-01T08:56:11;30.10;95.10
35129;DHT22;21301;43.626;10.580;2022-07-01T08:58:55;30.10;94.90
35129;DHT22;21301;43.626;10.580;2022-07-01T09:01:24;30.30;95.10
35129;DHT22;21301;43.626;10.580;2022-07-01T09:03:52;30.90;94.90
35129;DHT22;21301;43.626;10.580;2022-07-01T09:06:20;30.60;94.90
35129;DHT22;21301;43.626;10.580;2022-07-01T09:08:46;30.80;95.00
35129;DHT22;21301;43.626;10.580;2022-07-01T09:11:24;31.50;94.90
35129;DHT22;21301;43.626;10.580;2022-07-01T09:14:14;32.10;94.50
35129;DHT22;21301;43.626;10.580;2022-07-01T09:16:49;31.90;93.90
35129;DHT22;21301;43.626;10.580;2022-07-01T09:19:17;32.10;94.20
35129;DHT22;21301;43.626;10.580;2022-07-01T09:21:50;32.50;94.60
35129;DHT22;21301;43.626;10.580;2022-07-01T09:24:34;32.70;94.20
35129;DHT22;21301;43.626;10.580;2022-07-01T09:27:03;32.30;93.60
35129;DHT22;21301;43.626;10.580;2022-07-01T09:29:36;32.20;94.10
35129;DHT22;21301;43.626;10.580;2022-07-01T09:32:05;32.00;94.30
35129;DHT22;21301;43.626;10.580;2022-07-01T09:37:07;32.00;93.70
35129;DHT22;21301;43.626;10.580;2022-07-01T09:39:47;32.20;94.30
35129;DHT22;21301;43.626;10.580;2022-07-01T09:42:14;32.20;94.30
35129;DHT22;21301;43.626;10.580;2022-07-01T09:47:25;32.00;94.30
35129;DHT22;21301;43.626;10.580;2022-07-01T09:49:52;32.20;94.50
35129;DHT22;21301;43.626;10.580;2022-07-01T09:52:19;32.20;94.50
35129;DHT22;21301;43.626;10.580;2022-07-01T09:54:46;32.20;94.80
35129;DHT22;21301;43.626;10.580;2022-07-01T09:57:16;32.60;94.10
35129;DHT22;21301;43.626;10.580;2022-07-01T09:59:42;32.60;94.40
35129;DHT22;21301;43.626;10.580;2022-07-01T10:02:08;32.90;94.50
35129;DHT22;21301;43.626;10.580;2022-07-01T10:04:39;33.50;94.10
35129;DHT22;21301;43.626;10.580;2022-07-01T10:12:50;33.40;93.40
35129;DHT22;21301;43.626;10.580;2022-07-01T10:15:18;33.60;93.20
35129;DHT22;21301;43.626;10.580;2022-07-01T10:17:47;32.40;93.30
35129;DHT22;21301;43.626;10.580;2022-07-01T10:22:42;32.70;93.80
35129;DHT22;21301;43.626;10.580;2022-07-01T10:28:21;32.90;93.50
35129;DHT22;21301;43.626;10.580;2022-07-01T10:38:31;33.00;93.40
35129;DHT22;21301;43.626;10.580;2022-07-01T10:40:56;33.00;93.80
35129;DHT22;21301;43.626;10.580;2022-07-01T10:43:36;32.80;93.30
35129;DHT22;21301;43.626;10.580;2022-07-01T10:46:03;33.30;93.80
35129;DHT22;21301;43.626;10.580;2022-07-01T10:48:33;33.00;93.80
35129;DHT22;21301;43.626;10.580;2022-07-01T10:51:00;33.20;93.60
35129;DHT22;21301;43.626;10.580;2022-07-01T10:53:45;32.80;93.90
35129;DHT22;21301;43.626;10.580;2022-07-01T10:56:17;33.20;93.10
35129;DHT22;21301;43.626;10.580;2022-07-01T10:58:43;33.20;94.00
35129;DHT22;21301;43.626;10.580;2022-07-01T11:01:09;32.90;93.90
35129;DHT22;21301;43.626;10.580;2022-07-01T11:03:36;32.50;94.40
35129;DHT22;21301;43.626;10.580;2022-07-01T11:06:04;32.40;94.70
35129;DHT22;21301;43.626;10.580;2022-07-01T11:08:31;32.90;94.50
35129;DHT22;21301;43.626;10.580;2022-07-01T11:10:58;32.80;94.80
35129;DHT22;21301;43.626;10.580;2022-07-01T11:13:27;32.70;95.10
35129;DHT22;21301;43.626;10.580;2022-07-01T11:15:53;32.50;95.20
35129;DHT22;21301;43.626;10.580;2022-07-01T11:18:19;32.60;95.30
35129;DHT22;21301;43.626;10.580;2022-07-01T11:20:45;32.90;95.10
35129;DHT22;21301;43.626;10.580;2022-07-01T11:23:12;32.60;95.40
35129;DHT22;21301;43.626;10.580;2022-07-01T11:25:38;32.80;95.20
35129;DHT22;21301;43.626;10.580;2022-07-01T11:28:04;32.50;95.40
35129;DHT22;21301;43.626;10.580;2022-07-01T11:30:29;32.40;95.30
35129;DHT22;21301;43.626;10.580;2022-07-01T11:32:57;32.20;95.60
35129;DHT22;21301;43.626;10.580;2022-07-01T11:35:29;32.00;96.00
35129;DHT22;21301;43.626;10.580;2022-07-01T11:38:18;31.90;95.80
35129;DHT22;21301;43.626;10.580;2022-07-01T11:41:06;31.80;96.30
35129;DHT22;21301;43.626;10.580;2022-07-01T11:43:35;31.70;96.60
35129;DHT22;21301;43.626;10.580;2022-07-01T11:46:03;31.50;96.60
35129;DHT22;21301;43.626;10.580;2022-07-01T11:50:56;31.50;96.80
35129;DHT22;21301;43.626;10.580;2022-07-01T11:53:22;31.50;97.00
35129;DHT22;21301;43.626;10.580;2022-07-01T11:55:48;31.60;96.90
35129;DHT22;21301;43.626;10.580;2022-07-01T11:58:14;31.60;96.60
35129;DHT22;21301;43.626;10.580;2022-07-01T12:00:40;31.80;96.30
35129;DHT22;21301;43.626;10.580;2022-07-01T12:03:06;31.70;96.40
35129;DHT22;21301;43.626;10.580;2022-07-01T12:05:35;32.10;96.30
35129;DHT22;21301;43.626;10.580;2022-07-01T12:08:02;32.00;96.10
35129;DHT22;21301;43.626;10.580;2022-07-01T12:10:29;32.10;95.50
35129;DHT22;21301;43.626;10.580;2022-07-01T12:12:55;32.10;95.50
35129;DHT22;21301;43.626;10.580;2022-07-01T12:15:21;32.20;95.80
35129;DHT22;21301;43.626;10.580;2022-07-01T12:17:47;32.00;96.00
35129;DHT22;21301;43.626;10.580;2022-07-01T12:20:12;32.00;96.00
35129;DHT22;21301;43.626;10.580;2022-07-01T12:22:38;32.40;95.80
35129;DHT22;21301;43.626;10.580;2022-07-01T12:27:34;32.40;95.20
35129;DHT22;21301;43.626;10.580;2022-07-01T12:30:00;32.40;95.10
35129;DHT22;21301;43.626;10.580;2022-07-01T12:32:27;32.80;95.10
35129;DHT22;21301;43.626;10.580;2022-07-01T12:34:59;32.80;94.90
35129;DHT22;21301;43.626;10.580;2022-07-01T12:37:35;32.50;95.70
35129;DHT22;21301;43.626;10.580;2022-07-01T12:40:03;32.00;96.80
35129;DHT22;21301;43.626;10.580;2022-07-01T12:42:37;31.80;97.50
35129;DHT22;21301;43.626;10.580;2022-07-01T12:45:09;31.90;98.10
35129;DHT22;21301;43.626;10.580;2022-07-01T12:47:38;32.20;97.20
35129;DHT22;21301;43.626;10.580;2022-07-01T12:52:37;32.10;98.00
35129;DHT22;21301;43.626;10.580;2022-07-01T12:55:19;31.80;99.00
35129;DHT22;21301;43.626;10.580;2022-07-01T12:57:46;31.50;99.80
35129;DHT22;21301;43.626;10.580;2022-07-01T13:00:13;31.50;99.80
35129;DHT22;21301;43.626;10.580;2022-07-01T13:02:39;31.40;99.70
35129;DHT22;21301;43.626;10.580;2022-07-01T13:05:05;31.60;99.90
35129;DHT22;21301;43.626;10.580;2022-07-01T13:07:31;31.70;99.90
35129;DHT22;21301;43.626;10.580;2022-07-01T13:09:57;32.10;99.50
35129;DHT22;21301;43.626;10.580;2022-07-01T13:12:23;31.80;99.30
35129;DHT22;21301;43.626;10.580;2022-07-01T13:14:48;31.60;99.50
35129;DHT22;21301;43.626;10.580;2022-07-01T13:17:14;31.50;99.60
35129;DHT22;21301;43.626;10.580;2022-07-01T13:19:40;31.40;99.40
35129;DHT22;21301;43.626;10.580;2022-07-01T13:22:06;31.30;99.60
35129;DHT22;21301;43.626;10.580;2022-07-01T13:24:31;31.60;99.70
35129;DHT22;21301;43.626;10.580;2022-07-01T13:26:57;31.60;99.20
35129;DHT22;21301;43.626;10.580;2022-07-01T13:29:23;31.90;99.20
35129;DHT22;21301;43.626;10.580;2022-07-01T13:31:49;32.10;99.20
35129;DHT22;21301;43.626;10.580;2022-07-01T13:34:15;31.90;98.70
35129;DHT22;21301;43.626;10.580;2022-07-01T13:36:40;31.60;98.90
35129;DHT22;21301;43.626;10.580;2022-07-01T13:39:06;32.00;98.60
35129;DHT22;21301;43.626;10.580;2022-07-01T13:41:32;31.80;98.20
35129;DHT22;21301;43.626;10.580;2022-07-01T13:43:58;31.60;98.30
35129;DHT22;21301;43.626;10.580;2022-07-01T13:46:24;31.70;98.80
35129;DHT22;21301;43.626;10.580;2022-07-01T13:48:49;32.00;98.40
35129;DHT22;21301;43.626;10.580;2022-07-01T13:51:15;32.00;97.80
35129;DHT22;21301;43.626;10.580;2022-07-01T13:53:41;31.80;97.80
35129;DHT22;21301;43.626;10.580;2022-07-01T13:56:07;32.00;97.30
35129;DHT22;21301;43.626;10.580;2022-07-01T13:58:33;32.00;97.00
35129;DHT22;21301;43.626;10.580;2022-07-01T14:00:59;32.10;97.20
35129;DHT22;21301;43.626;10.580;2022-07-01T14:03:25;31.90;96.00
35129;DHT22;21301;43.626;10.580;2022-07-01T14:05:50;31.80;98.00
35129;DHT22;21301;43.626;10.580;2022-07-01T14:08:17;31.70;99.30
35129;DHT22;21301;43.626;10.580;2022-07-01T14:10:43;31.50;99.60
35129;DHT22;21301;43.626;10.580;2022-07-01T14:13:10;31.40;99.60
35129;DHT22;21301;43.626;10.580;2022-07-01T14:15:36;31.40;99.60
35129;DHT22;21301;43.626;10.580;2022-07-01T14:18:03;31.80;99.40
35129;DHT22;21301;43.626;10.580;2022-07-01T14:20:29;31.60;99.60
35129;DHT22;21301;43.626;10.580;2022-07-01T14:22:55;31.60;99.20
35129;DHT22;21301;43.626;10.580;2022-07-01T14:25:21;31.70;99.20
35129;DHT22;21301;43.626;10.580;2022-07-01T14:27:48;31.50;99.10
35129;DHT22;21301;43.626;10.580;2022-07-01T14:30:15;31.50;98.80
35129;DHT22;21301;43.626;10.580;2022-07-01T14:32:41;31.40;98.50
35129;DHT22;21301;43.626;10.580;2022-07-01T14:35:07;31.40;98.10
35129;DHT22;21301;43.626;10.580;2022-07-01T14:37:34;31.60;98.20
35129;DHT22;21301;43.626;10.580;2022-07-01T14:40:03;31.60;98.30
35129;DHT22;21301;43.626;10.580;2022-07-01T14:42:29;31.50;98.80
35129;DHT22;21301;43.626;10.580;2022-07-01T14:44:55;31.20;98.90
35129;DHT22;21301;43.626;10.580;2022-07-01T14:47:22;31.00;99.10
35129;DHT22;21301;43.626;10.580;2022-07-01T14:49:49;30.90;99.40
35129;DHT22;21301;43.626;10.580;2022-07-01T14:52:16;30.80;99.50
35129;DHT22;21301;43.626;10.580;2022-07-01T14:54:43;30.80;99.30
35129;DHT22;21301;43.626;10.580;2022-07-01T14:57:09;31.10;99.30
35129;DHT22;21301;43.626;10.580;2022-07-01T14:59:35;31.00;98.50
35129;DHT22;21301;43.626;10.580;2022-07-01T15:02:02;30.90;98.90
35129;DHT22;21301;43.626;10.580;2022-07-01T15:04:33;30.80;98.70
35129;DHT22;21301;43.626;10.580;2022-07-01T15:06:59;31.00;99.30
35129;DHT22;21301;43.626;10.580;2022-07-01T15:09:25;31.10;99.20
35129;DHT22;21301;43.626;10.580;2022-07-01T15:11:51;30.90;98.30
35129;DHT22;21301;43.626;10.580;2022-07-01T15:14:17;31.00;98.40
35129;DHT22;21301;43.626;10.580;2022-07-01T15:16:43;31.00;97.90
35129;DHT22;21301;43.626;10.580;2022-07-01T15:19:10;31.00;97.90
35129;DHT22;21301;43.626;10.580;2022-07-01T15:21:35;30.80;97.00
35129;DHT22;21301;43.626;10.580;2022-07-01T15:24:01;31.10;97.60
35129;DHT22;21301;43.626;10.580;2022-07-01T15:26:27;31.00;97.50
35129;DHT22;21301;43.626;10.580;2022-07-01T15:28:53;31.10;97.70
35129;DHT22;21301;43.626;10.580;2022-07-01T15:31:19;31.30;97.30
35129;DHT22;21301;43.626;10.580;2022-07-01T15:33:46;31.40;96.90
35129;DHT22;21301;43.626;10.580;2022-07-01T15:36:12;31.30;96.60
35129;DHT22;21301;43.626;10.580;2022-07-01T15:38:38;31.10;96.50
35129;DHT22;21301;43.626;10.580;2022-07-01T15:41:05;31.00;96.30
35129;DHT22;21301;43.626;10.580;2022-07-01T15:43:32;31.10;96.50
35129;DHT22;21301;43.626;10.580;2022-07-01T15:45:59;31.20;96.30
35129;DHT22;21301;43.626;10.580;2022-07-01T15:48:25;31.30;95.60